Portada
METAR-TAF:

METAR-TAF

Aeroports :

Krasnodar, Rússia

latitud: 45-02N, longitud: 039-09E, altitud: 33 m

Observació

L'informe es va fer fa 44 minuts, a les 13:30 UTC
Vent 6 kt del Est/Nord-Est, variant entre Nord/Nord-Est i Est
Temperatura 27°C
Humitat 48%
Pressió 1016 hPa
Visibilitat 10 km o més
sense núvols per sota de 1500 mi sense presència de cumulonimbus.

METAR: URKK 181330Z 07003MPS 030V090 CAVOK 27/15 Q1016 R05R/CLRD70 NOSIG RMK QFE759

Hora: 18:14 (14:14 UTC)

Pronòstic

L'informe es va fer fa 2 hores i 26 minuts, a les 11:48 UTC
Pronòstic vàlid del 18 a les 12 UTC al 19 a les 12 UTC
Vent 6 kt del Est/Nord-Est amb ràfegues de 16 kt
Visibilitat 10 km o més
sense núvols per sota de 1500 mi sense presència de cumulonimbus.
Temporalment
l' 18 a les 12 UTC al 19 a les 09 UTC
Vent 12 kt del Est/Sud-Est amb ràfegues de 23 kt

TAF: URKK 181148Z 1812/1912 06003G08MPS CAVOK TEMPO 1812/1909 12006G12MPS

Observacions i pronòstics meteorològics de més de 4000 aeroports (METAR i TAF).

Les estacions disponibles són els punts grocs i vermells al mapa.

Posi el ratolí al punt desitjat per veure el nom de l'estació.

Feu clic per veure les observacions i els pronòstics meteorològics.

Per canviar el mapa: feu clic els botons verds amb una creu de color negre per apropar; al botó verd amb un guió per allunyar la imatge; o en les fletxes verdes per a mapes adjacents.


METAR-TAF: